Time;durP1;ratioP1;P1;durP2;ratioP2;P2;SDS_P1;SDS_P2;PMS_P1;PMS_P2;Temp;Humidity;BMP_temperature;BMP_pressure;BME280_temperature;BME280_humidity;BME280_pressure;Samples;Min_cycle;Max_cycle;Signal;HPM_P1;HPM_P2
2023/11/20 05:00:30;;;;;;;2.00;1.90;;;10.30;99.90;;;;;;5906498;23;20189;-72
2023/11/20 05:02:57;;;;;;;2.53;2.33;;;10.30;99.90;;;;;;4978935;28;20216;-73
2023/11/20 05:05:23;;;;;;;4.15;2.70;;;10.30;99.90;;;;;;4985676;28;20604;-72
2023/11/20 05:07:50;;;;;;;5.85;3.65;;;10.30;99.90;;;;;;4988887;28;20737;-73
2023/11/20 05:10:17;;;;;;;3.25;3.00;;;10.30;99.90;;;;;;4986415;28;20208;-72
2023/11/20 05:12:43;;;;;;;2.10;2.00;;;10.30;99.90;;;;;;4992418;28;20246;-72
2023/11/20 05:15:10;;;;;;;2.72;2.53;;;10.30;99.90;;;;;;4985289;28;20305;-72
2023/11/20 05:17:38;;;;;;;6.10;3.17;;;10.30;99.90;;;;;;4982909;28;20204;-73
2023/11/20 05:20:08;;;;;;;3.25;2.97;;;10.30;99.90;;;;;;4982312;28;20680;-73
2023/11/20 05:22:35;;;;;;;6.47;3.70;;;10.30;99.90;;;;;;4986460;28;20206;-72
2023/11/20 05:25:01;;;;;;;3.55;3.22;;;10.30;99.90;;;;;;4993675;28;20208;-72
2023/11/20 05:27:28;;;;;;;5.10;3.40;;;10.30;99.90;;;;;;4980622;28;20216;-72
2023/11/20 05:29:55;;;;;;;5.00;3.95;;;10.30;99.90;;;;;;4988149;28;20303;-72
2023/11/20 05:32:21;;;;;;;6.80;4.55;;;10.30;99.90;;;;;;4990328;28;20597;-72
2023/11/20 05:34:49;;;;;;;4.18;3.78;;;10.20;99.90;;;;;;4988803;28;20200;-72
2023/11/20 05:37:16;;;;;;;7.38;4.20;;;10.20;99.90;;;;;;4992133;28;20667;-73
2023/11/20 05:39:44;;;;;;;6.50;4.07;;;10.20;99.90;;;;;;4993294;28;20207;-73
2023/11/20 05:42:11;;;;;;;4.25;3.58;;;10.20;99.90;;;;;;4992136;28;20313;-72
2023/11/20 05:44:38;;;;;;;7.68;5.18;;;10.20;99.90;;;;;;4983771;28;20664;-72
2023/11/20 05:47:04;;;;;;;5.60;4.22;;;10.20;99.90;;;;;;4988825;28;20207;-73
2023/11/20 05:49:31;;;;;;;13.98;5.13;;;10.20;99.90;;;;;;4985109;28;20200;-72
2023/11/20 05:51:59;;;;;;;5.78;4.90;;;10.20;99.90;;;;;;4989569;28;20227;-73
2023/11/20 05:54:26;;;;;;;6.22;4.93;;;10.20;99.90;;;;;;4983602;28;20223;-72
2023/11/20 05:56:52;;;;;;;7.57;5.25;;;10.20;99.90;;;;;;4991648;28;20224;-72
2023/11/20 05:59:19;;;;;;;9.48;5.22;;;10.10;99.90;;;;;;4990423;28;20200;-72
2023/11/20 06:01:47;;;;;;;5.63;4.43;;;10.10;99.90;;;;;;4992006;28;20231;-73
2023/11/20 06:04:14;;;;;;;7.43;4.78;;;10.10;99.90;;;;;;4990502;28;20501;-72
2023/11/20 06:06:41;;;;;;;6.05;4.63;;;10.10;99.90;;;;;;4988116;28;20250;-72
2023/11/20 06:09:10;;;;;;;13.43;5.75;;;10.10;99.90;;;;;;4984840;28;20227;-72
2023/11/20 06:11:37;;;;;;;8.45;4.22;;;10.10;99.90;;;;;;4989650;28;20262;-72
2023/11/20 06:14:04;;;;;;;6.95;4.15;;;10.10;99.90;;;;;;4991498;28;20556;-72
2023/11/20 06:16:31;;;;;;;8.13;3.80;;;10.10;99.90;;;;;;4983248;28;20227;-72
2023/11/20 06:18:58;;;;;;;6.75;4.05;;;10.10;99.90;;;;;;4988762;28;20211;-72
2023/11/20 06:21:24;;;;;;;4.47;3.05;;;10.20;99.90;;;;;;4990273;28;20603;-72
2023/11/20 06:23:52;;;;;;;7.03;4.47;;;10.20;99.90;;;;;;4991998;28;20675;-72
2023/11/20 06:26:21;;;;;;;7.22;4.45;;;10.20;99.90;;;;;;4991057;28;20204;-72
2023/11/20 06:28:48;;;;;;;4.05;3.63;;;10.20;99.90;;;;;;4984121;28;20227;-72
2023/11/20 06:31:14;;;;;;;5.78;3.25;;;10.20;99.90;;;;;;4984222;28;20228;-72
2023/11/20 06:33:41;;;;;;;7.32;4.82;;;10.20;99.90;;;;;;4987593;28;20212;-71
2023/11/20 06:36:10;;;;;;;7.38;4.28;;;10.20;99.90;;;;;;4989960;28;20702;-72
2023/11/20 06:38:37;;;;;;;8.68;4.82;;;10.20;99.90;;;;;;4986818;28;20215;-72
2023/11/20 06:41:04;;;;;;;10.68;6.25;;;10.20;99.90;;;;;;4981896;28;20228;-72
2023/11/20 06:43:32;;;;;;;6.30;4.32;;;10.20;99.90;;;;;;4991353;28;20223;-72
2023/11/20 06:45:59;;;;;;;4.50;3.90;;;10.20;99.90;;;;;;4991465;28;20292;-72
2023/11/20 06:48:26;;;;;;;6.53;3.72;;;10.20;99.90;;;;;;4989579;28;20247;-72
2023/11/20 06:50:53;;;;;;;5.40;3.67;;;10.20;99.90;;;;;;4988502;28;20220;-71
2023/11/20 06:53:19;;;;;;;5.82;3.75;;;10.20;99.90;;;;;;4990424;28;20466;-71
2023/11/20 06:55:46;;;;;;;3.80;2.93;;;10.20;99.90;;;;;;4991486;28;20223;-72
2023/11/20 06:58:13;;;;;;;13.45;4.45;;;10.20;99.90;;;;;;4986566;28;20955;-72
2023/11/20 07:00:42;;;;;;;6.43;3.80;;;10.20;99.90;;;;;;4983955;28;20244;-72
2023/11/20 07:03:09;;;;;;;3.80;3.50;;;10.20;99.90;;;;;;4986137;28;20218;-72
2023/11/20 07:05:36;;;;;;;5.40;3.95;;;10.20;99.90;;;;;;4990760;28;20200;-72
2023/11/20 07:08:06;;;;;;;7.00;3.90;;;10.20;99.90;;;;;;4988024;28;20302;-72
2023/11/20 07:10:34;;;;;;;3.92;2.67;;;10.20;99.90;;;;;;4987159;28;20220;-72
2023/11/20 07:13:01;;;;;;;6.82;3.75;;;10.20;99.90;;;;;;4990619;28;20208;-73
2023/11/20 07:15:28;;;;;;;6.68;2.97;;;10.20;99.90;;;;;;4991027;28;20212;-73
2023/11/20 07:17:56;;;;;;;4.22;3.65;;;10.20;99.90;;;;;;4988909;28;20229;-73
2023/11/20 07:20:23;;;;;;;2.83;2.63;;;10.20;99.90;;;;;;4984552;28;20218;-72
2023/11/20 07:22:50;;;;;;;4.30;3.70;;;10.20;99.90;;;;;;4987281;28;20219;-71
2023/11/20 07:25:17;;;;;;;7.35;5.03;;;10.20;99.90;;;;;;4988923;28;20208;-73
2023/11/20 07:27:43;;;;;;;3.30;3.00;;;10.20;99.90;;;;;;4979379;28;20645;-73
2023/11/20 07:30:11;;;;;;;5.53;4.03;;;10.20;99.90;;;;;;4986283;28;20297;-72
2023/11/20 07:32:38;;;;;;;9.20;5.30;;;10.20;99.90;;;;;;4988496;28;20295;-71
2023/11/20 07:35:07;;;;;;;4.63;3.95;;;10.20;99.90;;;;;;4979118;28;20219;-72
2023/11/20 07:37:34;;;;;;;4.72;3.67;;;10.20;99.90;;;;;;4976272;28;20748;-72
2023/11/20 07:40:02;;;;;;;6.40;4.30;;;10.20;99.90;;;;;;4987663;28;20238;-72
2023/11/20 07:42:29;;;;;;;9.75;4.82;;;10.20;99.90;;;;;;4989247;28;20486;-73
2023/11/20 07:44:56;;;;;;;6.57;4.05;;;10.20;99.90;;;;;;4981438;28;20215;-72
2023/11/20 07:47:22;;;;;;;5.00;4.50;;;10.20;99.90;;;;;;4983216;28;20262;-72
2023/11/20 07:49:49;;;;;;;8.15;5.13;;;10.30;99.90;;;;;;4977407;28;20204;-73
2023/11/20 07:52:17;;;;;;;11.10;6.93;;;10.30;99.90;;;;;;4985538;28;20623;-71
2023/11/20 07:54:44;;;;;;;6.80;6.05;;;10.30;99.90;;;;;;4981695;28;20219;-70
2023/11/20 07:57:11;;;;;;;10.60;7.72;;;10.30;99.90;;;;;;4983393;28;20647;-72
2023/11/20 07:59:38;;;;;;;6.35;5.80;;;10.30;99.90;;;;;;4982176;28;20216;-72
2023/11/20 08:02:05;;;;;;;6.07;5.27;;;10.30;99.90;;;;;;4986886;28;20259;-72
2023/11/20 08:04:31;;;;;;;9.95;5.60;;;10.30;99.90;;;;;;4988211;28;20483;-72
2023/11/20 08:06:58;;;;;;;8.25;6.53;;;10.30;99.90;;;;;;4989204;28;20196;-72
2023/11/20 08:09:26;;;;;;;9.17;7.00;;;10.40;99.90;;;;;;4984876;28;20287;-72
2023/11/20 08:11:53;;;;;;;7.18;6.00;;;10.40;99.90;;;;;;4987379;28;20977;-71
2023/11/20 08:14:20;;;;;;;7.83;6.47;;;10.40;99.90;;;;;;4989131;28;20226;-72
2023/11/20 08:16:47;;;;;;;7.72;6.00;;;10.40;99.90;;;;;;4986244;28;20490;-74
2023/11/20 08:19:15;;;;;;;10.63;6.68;;;10.40;99.90;;;;;;4985937;28;20262;-72
2023/11/20 08:21:42;;;;;;;8.60;6.03;;;10.40;99.90;;;;;;4989971;28;20329;-72
2023/11/20 08:24:11;;;;;;;6.73;6.03;;;10.50;99.90;;;;;;4992332;28;20467;-72
2023/11/20 08:26:39;;;;;;;8.17;6.37;;;10.50;99.90;;;;;;4991340;28;20470;-73
2023/11/20 08:29:06;;;;;;;11.57;7.90;;;10.50;99.90;;;;;;4985803;28;20531;-72
2023/11/20 08:31:33;;;;;;;6.75;5.57;;;10.50;99.90;;;;;;4992838;28;20518;-71
2023/11/20 08:34:00;;;;;;;10.18;6.97;;;10.60;99.90;;;;;;4993853;28;20299;-72
2023/11/20 08:36:26;;;;;;;12.40;7.20;;;10.60;99.90;;;;;;4989913;28;20223;-72
2023/11/20 08:38:53;;;;;;;5.45;4.95;;;10.70;99.90;;;;;;4982263;28;20463;-73
2023/11/20 08:41:20;;;;;;;7.35;4.95;;;10.70;99.90;;;;;;4989165;28;20224;-72
2023/11/20 08:43:48;;;;;;;7.70;5.33;;;10.70;99.90;;;;;;4989249;28;20671;-73
2023/11/20 08:46:14;;;;;;;9.20;6.60;;;10.80;99.90;;;;;;4984703;28;20468;-72
2023/11/20 08:48:41;;;;;;;7.00;5.50;;;10.80;99.90;;;;;;4984791;28;20741;-70
2023/11/20 08:51:08;;;;;;;22.13;12.37;;;10.80;99.90;;;;;;4985816;28;20503;-74
2023/11/20 08:53:35;;;;;;;27.80;14.57;;;10.90;99.90;;;;;;4987036;28;20479;-73
2023/11/20 08:56:02;;;;;;;29.87;15.80;;;10.90;99.90;;;;;;4980822;28;20475;-73
2023/11/20 08:58:29;;;;;;;29.97;15.10;;;10.90;99.90;;;;;;4988292;28;20486;-73
2023/11/20 09:00:59;;;;;;;45.37;22.27;;;10.90;99.90;;;;;;4990236;28;20871;-70
2023/11/20 09:03:26;;;;;;;19.40;11.33;;;10.90;99.90;;;;;;4987256;28;20552;-70
2023/11/20 09:05:52;;;;;;;28.83;17.30;;;10.90;99.90;;;;;;4986608;28;20519;-72
2023/11/20 09:08:19;;;;;;;40.57;19.10;;;11.00;99.90;;;;;;4985510;28;20471;-72
2023/11/20 09:10:46;;;;;;;20.10;12.20;;;11.00;99.90;;;;;;4988131;28;20486;-71
2023/11/20 09:13:12;;;;;;;22.23;13.27;;;11.00;99.90;;;;;;4989410;28;20474;-70
2023/11/20 09:15:39;;;;;;;8.10;7.13;;;11.10;99.90;;;;;;4990330;28;20467;-73
2023/11/20 09:18:07;;;;;;;22.80;14.00;;;11.10;99.90;;;;;;4990444;28;21006;-72
2023/11/20 09:20:34;;;;;;;13.00;9.30;;;11.10;99.90;;;;;;4990957;28;20488;-72
2023/11/20 09:23:01;;;;;;;20.53;13.47;;;11.20;99.90;;;;;;4985536;28;20487;-74
2023/11/20 09:25:28;;;;;;;61.47;24.20;;;11.20;99.90;;;;;;4991258;28;20497;-71
2023/11/20 09:27:57;;;;;;;35.87;16.33;;;11.30;99.90;;;;;;4981939;28;20463;-73
2023/11/20 09:30:24;;;;;;;35.27;15.07;;;11.30;99.90;;;;;;4992001;28;20567;-73
2023/11/20 09:32:51;;;;;;;18.93;10.30;;;11.30;99.90;;;;;;4985821;28;20473;-73
2023/11/20 09:35:20;;;;;;;9.23;6.40;;;11.40;99.90;;;;;;4989708;28;20469;-74
2023/11/20 09:37:47;;;;;;;39.47;24.77;;;11.40;99.90;;;;;;4988377;28;20935;-73
2023/11/20 09:40:14;;;;;;;12.47;8.53;;;11.40;99.90;;;;;;4988618;28;20471;-74
2023/11/20 09:42:43;;;;;;;33.07;20.97;;;11.40;99.90;;;;;;4992783;28;20469;-73
2023/11/20 09:45:24;;;;;;;6.17;5.30;;;11.40;99.90;;;;;;4992888;28;20465;-72
2023/11/20 09:47:52;;;;;;;44.00;26.47;;;11.40;99.90;;;;;;4991405;28;20996;-73
2023/11/20 09:50:20;;;;;;;16.70;12.73;;;11.40;99.90;;;;;;4983533;28;20915;-72
2023/11/20 09:52:50;;;;;;;5.93;5.30;;;11.40;99.90;;;;;;4987588;28;20487;-73
2023/11/20 09:55:19;;;;;;;4.17;3.77;;;11.50;99.90;;;;;;4986986;28;20571;-71
2023/11/20 09:57:45;;;;;;;5.57;5.13;;;11.50;99.90;;;;;;4989477;28;20494;-73
2023/11/20 10:00:17;;;;;;;10.63;9.20;;;11.60;99.90;;;;;;4990022;28;20471;-74
2023/11/20 10:02:45;;;;;;;6.87;6.27;;;11.60;99.90;;;;;;4984392;28;20483;-71
2023/11/20 10:05:14;;;;;;;6.83;6.33;;;11.60;99.90;;;;;;4988776;28;20497;-74
2023/11/20 10:07:44;;;;;;;11.30;10.20;;;11.60;99.90;;;;;;4989765;28;20455;-73
2023/11/20 10:10:12;;;;;;;9.13;7.57;;;11.60;99.90;;;;;;4992111;28;20483;-74
2023/11/20 10:12:40;;;;;;;7.37;6.60;;;11.50;99.90;;;;;;4989854;28;20496;-73
2023/11/20 10:15:08;;;;;;;6.03;5.50;;;11.60;99.90;;;;;;4991939;28;20493;-73
2023/11/20 10:17:37;;;;;;;6.07;5.47;;;11.60;99.90;;;;;;4988738;28;20489;-73
2023/11/20 10:20:09;;;;;;;5.63;5.03;;;11.60;99.90;;;;;;4986999;28;20526;-72
2023/11/20 10:22:37;;;;;;;7.70;6.97;;;11.60;99.90;;;;;;4984009;28;20468;-71
2023/11/20 10:25:08;;;;;;;5.27;4.77;;;11.60;99.90;;;;;;4990955;28;20462;-72
2023/11/20 10:27:35;;;;;;;6.47;5.13;;;11.50;99.90;;;;;;4988827;28;20978;-71
2023/11/20 10:30:03;;;;;;;4.77;4.37;;;11.50;99.90;;;;;;4988922;28;20472;-73
2023/11/20 10:32:30;;;;;;;5.77;4.90;;;11.50;99.90;;;;;;4985019;28;20504;-73
2023/11/20 10:35:13;;;;;;;6.03;5.40;;;11.50;99.90;;;;;;4987016;28;20495;-73
2023/11/20 10:37:52;;;;;;;6.07;4.83;;;11.50;99.90;;;;;;4988050;28;20499;-73
2023/11/20 10:40:21;;;;;;;6.27;5.20;;;11.60;99.90;;;;;;4987338;28;20476;-73
2023/11/20 10:42:49;;;;;;;17.00;9.83;;;11.60;99.90;;;;;;4984210;28;20506;-72
2023/11/20 10:45:15;;;;;;;9.77;7.50;;;11.60;99.90;;;;;;4982924;28;20496;-71
2023/11/20 10:47:45;;;;;;;7.87;5.50;;;11.60;99.90;;;;;;4987180;28;20465;-72
2023/11/20 10:50:13;;;;;;;5.40;5.00;;;11.70;99.90;;;;;;4985449;28;20472;-72
2023/11/20 10:52:42;;;;;;;4.83;4.30;;;11.70;99.90;;;;;;4980647;28;20480;-72
2023/11/20 10:55:12;;;;;;;4.40;4.07;;;11.60;99.90;;;;;;4981579;28;20468;-73
2023/11/20 10:57:41;;;;;;;5.23;4.73;;;11.70;99.90;;;;;;4981699;28;20586;-73
2023/11/20 11:00:11;;;;;;;5.63;5.07;;;11.60;99.90;;;;;;4984641;28;20483;-72
2023/11/20 11:02:39;;;;;;;5.83;5.30;;;11.60;99.90;;;;;;4986413;28;20566;-71
2023/11/20 11:05:08;;;;;;;10.50;5.60;;;11.60;99.90;;;;;;4982714;28;20462;-72
2023/11/20 11:07:39;;;;;;;5.30;4.90;;;11.70;99.90;;;;;;4987020;28;20463;-72
2023/11/20 11:10:10;;;;;;;5.70;5.10;;;11.70;99.90;;;;;;4987525;28;20474;-73
2023/11/20 11:12:42;;;;;;;5.00;4.60;;;11.60;99.90;;;;;;4981245;28;20468;-73
2023/11/20 11:15:12;;;;;;;4.40;4.00;;;11.60;99.90;;;;;;4982254;28;20459;-72
2023/11/20 11:17:45;;;;;;;5.50;4.80;;;11.40;99.90;;;;;;4983571;28;20571;-72
2023/11/20 11:20:14;;;;;;;5.10;4.60;;;11.40;99.90;;;;;;4989634;28;20551;-72
2023/11/20 11:22:45;;;;;;;5.00;4.50;;;11.40;99.90;;;;;;4982139;28;20452;-73
2023/11/20 11:25:12;;;;;;;4.23;3.93;;;11.30;99.90;;;;;;4985145;28;20482;-71
2023/11/20 11:27:48;;;;;;;4.03;3.70;;;11.30;99.90;;;;;;4982297;28;21210;-71
2023/11/20 11:30:17;;;;;;;4.13;3.73;;;11.30;99.90;;;;;;4981203;28;20459;-69
2023/11/20 11:33:04;;;;;;;3.80;3.50;;;11.20;99.90;;;;;;4982529;28;20544;-70
2023/11/20 11:35:52;;;;;;;4.43;4.10;;;11.20;99.90;;;;;;4983253;28;20517;-73
2023/11/20 11:38:28;;;;;;;3.90;3.50;;;11.20;99.90;;;;;;4987226;28;21052;-71
2023/11/20 11:41:08;;;;;;;8.53;5.43;;;11.10;99.90;;;;;;4984126;28;20890;-71
2023/11/20 11:43:44;;;;;;;5.33;4.80;;;11.10;99.90;;;;;;4981298;28;20479;-73
2023/11/20 11:46:11;;;;;;;3.97;3.70;;;11.10;99.90;;;;;;4981239;28;20526;-73
2023/11/20 11:48:39;;;;;;;7.97;6.50;;;11.10;99.90;;;;;;4984968;28;20471;-69
2023/11/20 11:51:18;;;;;;;56.95;47.03;;;11.10;99.90;;;;;;4985102;28;20494;-72
2023/11/20 11:54:14;;;;;;;12.83;10.87;;;11.00;99.90;;;;;;4979373;28;20207;-72
2023/11/20 11:56:53;;;;;;;41.73;25.07;;;10.90;99.90;;;;;;4985304;28;20467;-72
2023/11/20 11:59:31;;;;;;;6.37;5.77;;;10.90;99.90;;;;;;4978045;28;21153;-74
2023/11/20 12:01:58;;;;;;;6.30;5.70;;;10.90;99.90;;;;;;4987334;28;20502;-73
2023/11/20 12:05:03;;;;;;;19.40;12.00;;;10.90;99.90;;;;;;4980659;28;20265;-70
2023/11/20 12:08:04;;;;;;;46.67;21.70;;;10.90;99.90;;;;;;4989962;28;20470;-73
2023/11/20 12:10:49;;;;;;;11.90;7.97;;;10.80;99.90;;;;;;4909335;29;20865;-74
2023/11/20 12:13:16;;;;;;;6.07;5.47;;;10.80;99.90;;;;;;4912590;29;20554;-72
2023/11/20 12:15:47;;;;;;;4.73;4.33;;;10.80;99.90;;;;;;4956175;28;20214;-72
2023/11/20 12:18:16;;;;;;;4.90;4.50;;;10.80;99.90;;;;;;4980471;28;20937;-73
2023/11/20 12:21:00;;;;;;;16.92;9.25;;;10.80;99.90;;;;;;4980175;28;20223;-71
2023/11/20 12:23:28;;;;;;;5.30;4.60;;;10.80;99.90;;;;;;4987004;28;20208;-71
2023/11/20 12:25:56;;;;;;;6.88;5.35;;;10.80;99.90;;;;;;4989842;28;20208;-72
2023/11/20 12:28:24;;;;;;;5.57;4.85;;;10.80;99.90;;;;;;4983975;28;20574;-73
2023/11/20 12:30:54;;;;;;;6.05;4.07;;;10.70;99.90;;;;;;4985747;28;20709;-72
2023/11/20 12:33:20;;;;;;;5.10;4.70;;;10.80;99.90;;;;;;4987809;28;20212;-71
2023/11/20 12:35:50;;;;;;;4.75;4.35;;;10.70;99.90;;;;;;4986940;28;20211;-71
2023/11/20 12:38:17;;;;;;;6.55;4.65;;;10.70;99.90;;;;;;4990091;28;20231;-72
2023/11/20 12:40:48;;;;;;;5.25;4.75;;;10.70;99.90;;;;;;4976166;28;20239;-70
2023/11/20 12:43:15;;;;;;;4.30;3.87;;;10.80;99.90;;;;;;4979811;28;20208;-72
2023/11/20 12:45:42;;;;;;;8.50;5.75;;;10.80;99.90;;;;;;4987148;28;20910;-70
2023/11/20 12:48:10;;;;;;;16.00;9.73;;;10.80;99.90;;;;;;4984976;28;20540;-73
2023/11/20 12:50:37;;;;;;;4.13;3.83;;;10.70;99.90;;;;;;4976271;28;20240;-73
2023/11/20 12:53:04;;;;;;;6.87;5.43;;;10.70;99.90;;;;;;4980428;28;21220;-73
2023/11/20 12:55:31;;;;;;;7.97;6.00;;;10.70;99.90;;;;;;4986939;28;20578;-72
2023/11/20 12:57:59;;;;;;;6.80;6.00;;;10.70;99.90;;;;;;4979355;28;20495;-72
2023/11/20 13:00:27;;;;;;;7.75;5.47;;;10.70;99.90;;;;;;4977624;28;20835;-71
2023/11/20 13:02:57;;;;;;;3.90;3.70;;;10.80;99.90;;;;;;4981443;28;20215;-72
2023/11/20 13:05:27;;;;;;;4.70;4.00;;;10.70;99.90;;;;;;4984232;28;20223;-73
2023/11/20 13:07:56;;;;;;;3.60;3.30;;;10.70;99.90;;;;;;4970942;28;20275;-73
2023/11/20 13:10:25;;;;;;;3.67;3.38;;;10.70;99.90;;;;;;4977435;28;20216;-73
2023/11/20 13:12:52;;;;;;;3.38;3.00;;;10.60;99.90;;;;;;4979619;28;20599;-72
2023/11/20 13:15:23;;;;;;;2.38;2.25;;;10.60;99.90;;;;;;4987772;28;20287;-72
2023/11/20 13:17:52;;;;;;;4.25;3.85;;;10.70;99.90;;;;;;4986134;28;20231;-72
2023/11/20 13:20:41;;;;;;;4.07;3.67;;;10.60;99.90;;;;;;4985535;28;20235;-71
2023/11/20 13:23:17;;;;;;;7.55;5.03;;;10.70;99.90;;;;;;4985216;28;20255;-71
2023/11/20 13:25:45;;;;;;;3.60;3.30;;;10.70;99.90;;;;;;4984040;28;20216;-73
2023/11/20 13:28:13;;;;;;;3.70;3.10;;;10.70;99.90;;;;;;4992356;28;20222;-72
2023/11/20 13:30:54;;;;;;;1.88;1.55;;;10.70;99.90;;;;;;4983625;28;20254;-72
2023/11/20 13:33:23;;;;;;;1.98;1.80;;;10.70;99.90;;;;;;4991449;28;20200;-71
2023/11/20 13:35:51;;;;;;;2.33;2.20;;;10.60;99.90;;;;;;4976306;28;20212;-72
2023/11/20 13:38:18;;;;;;;2.00;1.90;;;10.60;99.90;;;;;;4989252;28;20709;-74
2023/11/20 13:40:45;;;;;;;2.20;2.10;;;10.60;99.90;;;;;;4989923;28;20247;-72
2023/11/20 13:43:11;;;;;;;6.07;5.55;;;10.60;99.90;;;;;;4987310;28;20211;-73
2023/11/20 13:45:38;;;;;;;3.55;3.35;;;10.60;99.90;;;;;;4991426;28;20204;-73
2023/11/20 13:48:05;;;;;;;7.68;7.00;;;10.60;99.90;;;;;;4989601;28;20203;-72
2023/11/20 13:50:32;;;;;;;8.45;6.47;;;10.70;99.90;;;;;;4984404;28;20228;-73
2023/11/20 13:53:01;;;;;;;6.95;5.72;;;10.70;99.90;;;;;;4988084;28;20590;-73
2023/11/20 13:55:28;;;;;;;7.40;5.50;;;10.70;99.90;;;;;;4977352;28;20553;-73
2023/11/20 13:57:55;;;;;;;3.47;3.27;;;10.70;99.90;;;;;;4979570;28;20515;-72
2023/11/20 14:00:24;;;;;;;2.90;2.70;;;10.70;99.90;;;;;;4978662;28;20480;-73
2023/11/20 14:02:52;;;;;;;7.87;2.83;;;10.70;99.90;;;;;;4987318;28;20466;-72
2023/11/20 14:05:19;;;;;;;2.17;2.07;;;10.70;99.90;;;;;;4980278;28;20471;-73
2023/11/20 14:07:46;;;;;;;2.07;2.07;;;10.70;99.90;;;;;;4982194;28;20904;-73
2023/11/20 14:10:15;;;;;;;1.85;1.85;;;10.70;99.90;;;;;;4986865;28;20551;-71
2023/11/20 14:12:42;;;;;;;2.00;1.93;;;10.70;99.90;;;;;;4988041;28;20267;-72
2023/11/20 14:15:12;;;;;;;2.28;2.17;;;10.70;99.90;;;;;;4987838;28;20540;-72
2023/11/20 14:17:38;;;;;;;2.13;1.97;;;10.70;99.90;;;;;;4984818;28;20299;-73
2023/11/20 14:20:08;;;;;;;1.83;1.83;;;10.70;99.90;;;;;;4987272;28;20481;-73
2023/11/20 14:22:34;;;;;;;2.22;2.13;;;10.70;99.90;;;;;;4986303;28;20570;-74
2023/11/20 14:25:03;;;;;;;2.55;2.45;;;10.70;99.90;;;;;;4983316;28;20301;-74
2023/11/20 14:27:31;;;;;;;2.85;2.65;;;10.70;99.90;;;;;;4983325;28;20211;-73
2023/11/20 14:29:58;;;;;;;2.60;2.10;;;10.70;99.90;;;;;;4977670;28;20295;-71
2023/11/20 14:32:25;;;;;;;2.55;2.35;;;10.70;99.90;;;;;;4980412;28;20484;-72
2023/11/20 14:34:51;;;;;;;3.00;2.80;;;10.70;99.90;;;;;;4987367;28;20203;-70
2023/11/20 14:37:18;;;;;;;2.40;2.30;;;10.70;99.90;;;;;;4976771;28;20999;-73
2023/11/20 14:39:45;;;;;;;3.10;2.90;;;10.70;99.90;;;;;;4978802;28;20862;-72
2023/11/20 14:42:11;;;;;;;1.88;1.77;;;10.70;99.90;;;;;;4979512;28;20228;-74
2023/11/20 14:44:39;;;;;;;1.35;1.27;;;10.70;99.90;;;;;;4983235;28;20211;-71
2023/11/20 14:47:07;;;;;;;1.40;1.40;;;10.70;99.90;;;;;;4981504;28;20219;-72
2023/11/20 14:49:35;;;;;;;1.40;1.30;;;10.70;99.90;;;;;;4982986;28;20514;-73
2023/11/20 14:52:02;;;;;;;1.50;1.40;;;10.60;99.90;;;;;;4984567;28;20589;-73
2023/11/20 14:54:29;;;;;;;2.17;2.08;;;10.60;99.90;;;;;;4988232;28;20215;-73
2023/11/20 14:56:56;;;;;;;1.60;1.60;;;10.60;99.90;;;;;;4983392;28;20629;-74
2023/11/20 14:59:23;;;;;;;1.55;1.55;;;10.60;99.90;;;;;;4978031;28;20479;-74
2023/11/20 15:01:51;;;;;;;2.38;2.28;;;10.60;99.90;;;;;;4985300;28;20235;-74
2023/11/20 15:04:19;;;;;;;2.15;2.00;;;10.60;99.90;;;;;;4987172;28;20212;-74
2023/11/20 15:06:46;;;;;;;1.67;1.58;;;10.50;99.90;;;;;;4982433;28;20223;-74
2023/11/20 15:09:13;;;;;;;1.98;1.98;;;10.50;99.90;;;;;;4980578;28;20204;-73
2023/11/20 15:11:40;;;;;;;1.10;1.10;;;10.50;99.90;;;;;;4984270;28;20318;-75
2023/11/20 15:14:06;;;;;;;1.90;1.90;;;10.50;99.90;;;;;;4985282;28;20208;-73
2023/11/20 15:16:33;;;;;;;1.50;1.50;;;10.50;99.90;;;;;;4982602;28;20204;-73
2023/11/20 15:19:01;;;;;;;1.50;1.50;;;10.50;99.90;;;;;;4984302;28;20231;-74
2023/11/20 15:21:28;;;;;;;1.75;1.65;;;10.50;99.90;;;;;;4976653;28;20250;-74
2023/11/20 15:23:55;;;;;;;3.75;3.45;;;10.50;99.90;;;;;;4978780;28;20664;-72
2023/11/20 15:26:23;;;;;;;5.07;4.65;;;10.50;99.90;;;;;;4974388;28;20227;-73
2023/11/20 15:28:50;;;;;;;3.78;3.47;;;10.50;99.90;;;;;;4984407;28;20208;-75
2023/11/20 15:31:17;;;;;;;2.30;2.20;;;10.50;99.90;;;;;;4984915;28;20613;-73
2023/11/20 15:33:44;;;;;;;2.30;2.22;;;10.50;99.90;;;;;;4987191;28;20204;-74
2023/11/20 15:36:12;;;;;;;2.03;1.95;;;10.50;99.90;;;;;;4975836;28;20216;-73
2023/11/20 15:38:39;;;;;;;2.00;1.90;;;10.40;99.90;;;;;;4982304;28;20224;-72
2023/11/20 15:41:06;;;;;;;1.83;1.83;;;10.40;99.90;;;;;;4973198;28;20718;-73
2023/11/20 15:43:33;;;;;;;1.40;1.40;;;10.40;99.90;;;;;;4985956;28;20223;-73
2023/11/20 15:46:00;;;;;;;3.60;3.30;;;10.40;99.90;;;;;;4972281;28;20216;-73
2023/11/20 15:48:27;;;;;;;4.50;4.13;;;10.40;99.90;;;;;;4980381;28;20204;-72
2023/11/20 15:50:53;;;;;;;3.00;2.80;;;10.40;99.90;;;;;;4981599;28;20230;-74
2023/11/20 15:53:22;;;;;;;3.72;3.00;;;10.40;99.90;;;;;;4988207;28;20319;-75
2023/11/20 15:55:48;;;;;;;2.90;2.70;;;10.40;99.90;;;;;;4979245;28;20291;-73
2023/11/20 15:58:15;;;;;;;4.65;3.65;;;10.50;99.90;;;;;;4978179;28;20299;-73
2023/11/20 16:00:42;;;;;;;2.38;2.28;;;10.40;99.90;;;;;;4982790;28;20240;-73
2023/11/20 16:03:10;;;;;;;4.22;3.88;;;10.40;99.90;;;;;;4984325;28;20223;-74
2023/11/20 16:05:37;;;;;;;9.15;5.40;;;10.40;99.90;;;;;;4980303;28;20200;-75
2023/11/20 16:08:04;;;;;;;2.00;1.90;;;10.40;99.90;;;;;;4982574;28;20693;-75
2023/11/20 16:10:32;;;;;;;3.83;2.08;;;10.40;99.90;;;;;;4979568;28;20207;-74
2023/11/20 16:13:00;;;;;;;3.40;3.20;;;10.40;99.90;;;;;;4987608;28;20215;-74
2023/11/20 16:15:27;;;;;;;2.45;1.90;;;10.40;99.90;;;;;;4983226;28;20200;-72
2023/11/20 16:17:54;;;;;;;3.78;2.10;;;10.40;99.90;;;;;;4985090;28;20215;-74
2023/11/20 16:20:20;;;;;;;1.70;1.70;;;10.30;99.90;;;;;;4987668;28;20236;-74
2023/11/20 16:22:47;;;;;;;1.63;1.63;;;10.30;99.90;;;;;;4985740;28;20702;-73
2023/11/20 16:25:14;;;;;;;2.55;2.40;;;10.30;99.90;;;;;;4986972;28;20211;-74
2023/11/20 16:27:42;;;;;;;3.05;2.85;;;10.30;99.90;;;;;;4986285;28;20256;-73
2023/11/20 16:30:10;;;;;;;4.22;3.08;;;10.30;99.90;;;;;;4988307;28;20230;-74
2023/11/20 16:32:36;;;;;;;2.38;2.28;;;10.20;99.90;;;;;;4982624;28;20236;-74
2023/11/20 16:35:05;;;;;;;8.05;3.38;;;10.20;99.90;;;;;;4982952;28;20593;-74
2023/11/20 16:37:32;;;;;;;3.03;2.85;;;10.20;99.90;;;;;;4984191;28;20581;-72
2023/11/20 16:39:59;;;;;;;3.20;3.10;;;10.20;99.90;;;;;;4975057;28;20232;-73
2023/11/20 16:42:28;;;;;;;13.35;8.55;;;10.20;99.90;;;;;;4991158;28;20241;-74
2023/11/20 16:44:56;;;;;;;3.88;3.58;;;10.20;99.90;;;;;;4987965;28;20212;-73
2023/11/20 16:47:23;;;;;;;4.22;3.83;;;10.20;99.90;;;;;;4988378;28;20208;-73
2023/11/20 16:49:50;;;;;;;3.03;2.85;;;10.20;99.90;;;;;;4980027;28;20308;-73
2023/11/20 16:52:17;;;;;;;5.45;2.85;;;10.20;99.90;;;;;;4990307;28;20219;-72
2023/11/20 16:54:44;;;;;;;3.20;2.50;;;10.20;99.90;;;;;;4987361;28;20207;-73
2023/11/20 16:57:10;;;;;;;4.45;3.22;;;10.20;99.90;;;;;;4989109;28;20693;-72
2023/11/20 16:59:37;;;;;;;4.30;3.90;;;10.20;99.90;;;;;;4986087;28;20287;-74
2023/11/20 17:02:05;;;;;;;3.15;2.85;;;10.20;99.90;;;;;;4982946;28;20259;-71
2023/11/20 17:04:32;;;;;;;5.15;3.33;;;10.10;99.90;;;;;;4984500;28;20234;-71
2023/11/20 17:06:59;;;;;;;10.20;7.40;;;10.10;99.90;;;;;;4992870;28;20226;-71
2023/11/20 17:09:26;;;;;;;3.63;3.42;;;10.10;99.90;;;;;;4991665;28;20677;-72
2023/11/20 17:11:53;;;;;;;4.50;3.42;;;10.10;99.90;;;;;;4981230;28;20278;-72
2023/11/20 17:14:20;;;;;;;6.18;4.53;;;10.10;99.90;;;;;;4979884;28;20210;-73
2023/11/20 17:16:46;;;;;;;5.88;3.72;;;10.10;99.90;;;;;;4987645;28;20342;-71
2023/11/20 17:19:14;;;;;;;5.38;2.65;;;10.10;99.90;;;;;;4979846;28;20224;-73
2023/11/20 17:21:41;;;;;;;3.92;3.38;;;10.10;99.90;;;;;;4986304;28;20236;-72
2023/11/20 17:24:08;;;;;;;3.05;2.85;;;10.10;99.90;;;;;;4992038;28;20211;-73
2023/11/20 17:26:36;;;;;;;5.15;3.58;;;10.10;99.90;;;;;;4992412;28;20215;-73
2023/11/20 17:29:03;;;;;;;17.77;9.80;;;10.10;99.90;;;;;;4989473;28;20209;-73
2023/11/20 17:31:31;;;;;;;4.10;3.80;;;10.10;99.90;;;;;;4985948;28;20228;-73
2023/11/20 17:33:58;;;;;;;5.45;4.47;;;10.10;99.90;;;;;;4983482;28;20232;-73
2023/11/20 17:36:27;;;;;;;3.67;3.42;;;10.10;99.90;;;;;;4988261;28;20208;-73
2023/11/20 17:38:54;;;;;;;3.20;3.10;;;10.10;99.90;;;;;;4983429;28;20567;-73
2023/11/20 17:41:21;;;;;;;5.78;3.55;;;10.00;99.90;;;;;;4985146;28;20232;-72
2023/11/20 17:43:48;;;;;;;4.30;3.50;;;10.00;99.90;;;;;;4987058;28;20636;-72
2023/11/20 17:46:14;;;;;;;5.20;3.38;;;10.00;99.90;;;;;;4983920;28;20216;-73
2023/11/20 17:48:41;;;;;;;6.00;3.42;;;10.00;99.90;;;;;;4990880;28;20206;-72
2023/11/20 17:51:08;;;;;;;4.20;3.80;;;10.00;99.90;;;;;;4982799;28;20232;-73